Time;durP1;ratioP1;P1;durP2;ratioP2;P2;SDS_P1;SDS_P2;PMS_P1;PMS_P2;Temp;Humidity;BMP_temperature;BMP_pressure;BME280_temperature;BME280_humidity;BME280_pressure;Samples;Min_cycle;Max_cycle;Signal;HPM_P1;HPM_P2
2023/01/26 00:01:54;;;;;;;52.00;23.70;;;;;;;-0.57;68.47;102416.54;107618;1252;107663;-60
2023/01/26 00:04:22;;;;;;;50.90;27.50;;;;;;;-0.59;68.48;102419.92;107515;1252;97846;-59
2023/01/26 00:06:51;;;;;;;54.30;27.90;;;;;;;-0.63;68.72;102422.44;107566;1253;97931;-59
2023/01/26 00:09:19;;;;;;;60.40;27.20;;;;;;;-0.67;68.66;102419.85;107538;1254;111642;-59
2023/01/26 00:11:48;;;;;;;53.90;28.40;;;;;;;-0.69;68.71;102419.71;107553;1254;109289;-59
2023/01/26 00:14:16;;;;;;;49.60;25.80;;;;;;;-0.71;68.83;102419.02;107514;1254;108168;-60
2023/01/26 00:16:44;;;;;;;60.80;28.20;;;;;;;-0.74;68.90;102414.84;107528;1254;97838;-59
2023/01/26 00:19:13;;;;;;;50.70;26.30;;;;;;;-0.75;69.04;102415.39;107578;1254;98368;-59
2023/01/26 00:21:41;;;;;;;50.00;27.00;;;;;;;-0.76;69.06;102411.35;107530;1254;111772;-59
2023/01/26 00:24:09;;;;;;;49.40;24.40;;;;;;;-0.76;69.10;102412.42;107561;1254;108689;-59
2023/01/26 00:26:38;;;;;;;55.20;24.80;;;;;;;-0.77;69.10;102414.38;107543;1253;107488;-60
2023/01/26 00:29:06;;;;;;;44.40;23.20;;;;;;;-0.76;69.01;102414.00;107545;1252;97844;-60
2023/01/26 00:31:35;;;;;;;54.70;25.90;;;;;;;-0.75;69.05;102408.33;107560;1253;97854;-60
2023/01/26 00:34:03;;;;;;;58.50;26.40;;;;;;;-0.73;68.97;102405.67;107533;1254;111724;-59
2023/01/26 00:36:32;;;;;;;48.10;25.00;;;;;;;-0.73;69.01;102403.19;107534;1254;109280;-59
2023/01/26 00:39:02;;;;;;;47.00;25.70;;;;;;;-0.73;68.98;102395.11;107571;1254;107669;-59
2023/01/26 00:44:17;;;;;;;41.10;21.30;;;;;;;-0.75;68.93;102397.77;107544;1253;97832;-60
2023/01/26 00:46:46;;;;;;;54.40;25.10;;;;;;;-0.75;69.00;102398.12;107621;1254;111408;-59
2023/01/26 00:49:14;;;;;;;58.30;27.40;;;;;;;-0.74;68.89;102394.41;107560;1254;109081;-60
2023/01/26 00:51:43;;;;;;;49.30;25.30;;;;;;;-0.73;69.17;102386.11;107484;1253;108626;-60
2023/01/26 00:54:11;;;;;;;44.10;22.60;;;;;;;-0.75;68.92;102381.92;107549;1254;97860;-60
2023/01/26 00:56:39;;;;;;;49.00;24.30;;;;;;;-0.77;68.90;102375.79;107634;1256;97780;-59
2023/01/26 00:59:08;;;;;;;54.20;27.20;;;;;;;-0.79;68.97;102372.98;107435;1253;110706;-59
2023/01/26 01:01:38;;;;;;;54.70;26.00;;;;;;;-0.80;69.02;102371.77;107583;1254;109735;-60
2023/01/26 01:04:07;;;;;;;49.90;24.10;;;;;;;-0.82;69.26;102371.62;107554;1252;108172;-60
2023/01/26 01:06:35;;;;;;;47.10;23.00;;;;;;;-0.81;69.29;102371.62;107584;1253;97841;-59
2023/01/26 01:09:04;;;;;;;40.90;22.70;;;;;;;-0.80;69.54;102368.25;107646;1254;98543;-59
2023/01/26 01:11:32;;;;;;;42.00;22.10;;;;;;;-0.81;69.73;102372.13;107610;1254;111934;-61
2023/01/26 01:14:01;;;;;;;40.20;19.80;;;;;;;-0.79;69.69;102366.48;107609;1252;109262;-60
2023/01/26 01:16:29;;;;;;;42.40;20.20;;;;;;;-0.76;70.03;102361.31;107529;1253;108261;-59
2023/01/26 01:18:58;;;;;;;38.90;18.50;;;;;;;-0.73;70.26;102352.11;107528;1253;97833;-60
2023/01/26 01:21:26;;;;;;;44.90;21.90;;;;;;;-0.67;70.54;102348.48;107548;1254;97812;-60
2023/01/26 01:23:54;;;;;;;37.20;19.80;;;;;;;-0.59;70.92;102345.00;107466;1253;112468;-60
2023/01/26 01:26:23;;;;;;;39.40;18.60;;;;;;;-0.53;70.87;102341.91;107522;1254;110249;-60
2023/01/26 01:28:55;;;;;;;39.70;18.80;;;;;;;-0.49;70.76;102338.51;107514;1253;108456;-60
2023/01/26 01:31:24;;;;;;;37.30;19.30;;;;;;;-0.40;70.99;102345.39;107584;1254;97838;-60
2023/01/26 01:33:53;;;;;;;38.20;20.20;;;;;;;-0.29;71.06;102347.67;107629;1256;97866;-59
2023/01/26 01:36:22;;;;;;;40.80;20.20;;;;;;;-0.22;71.07;102347.19;107549;1256;111828;-60
2023/01/26 01:38:51;;;;;;;38.10;18.20;;;;;;;-0.12;71.04;102341.55;107293;1253;109761;-59
2023/01/26 01:41:21;;;;;;;38.50;20.30;;;;;;;-0.07;70.75;102338.81;107539;1256;108421;-60
2023/01/26 01:43:50;;;;;;;38.10;20.40;;;;;;;-0.03;70.44;102336.11;107482;1254;97860;-60
2023/01/26 01:46:31;;;;;;;39.90;19.00;;;;;;;-0.04;70.09;102333.83;107554;1253;97917;-58
2023/01/26 01:49:05;;;;;;;37.20;19.60;;;;;;;-0.09;69.53;102333.90;107535;1252;110871;-59
2023/01/26 01:51:44;;;;;;;35.10;17.80;;;;;;;-0.20;69.15;102334.11;107564;1256;110046;-59
2023/01/26 01:54:18;;;;;;;40.00;20.40;;;;;;;-0.30;69.01;102331.30;107559;1254;107551;-58
2023/01/26 01:56:51;;;;;;;39.90;20.80;;;;;;;-0.40;69.12;102333.58;107558;1254;97719;-59
2023/01/26 01:59:21;;;;;;;40.20;20.10;;;;;;;-0.45;68.98;102330.66;107429;1254;97828;-59
2023/01/26 02:01:51;;;;;;;35.40;19.50;;;;;;;-0.48;69.09;102326.33;107559;1254;112118;-59
2023/01/26 02:04:22;;;;;;;38.60;19.50;;;;;;;-0.58;69.11;102327.90;107592;1253;110351;-59
2023/01/26 02:06:55;;;;;;;43.00;19.60;;;;;;;-0.64;69.20;102332.05;107531;1253;108824;-59
2023/01/26 02:12:23;;;;;;;41.50;19.10;;;;;;;-0.75;69.18;102332.06;107469;1253;97936;-60
2023/01/26 02:14:55;;;;;;;42.20;21.70;;;;;;;-0.78;69.33;102322.96;107556;1256;112072;-61
2023/01/26 02:17:23;;;;;;;38.90;17.80;;;;;;;-0.77;69.58;102317.30;107418;1253;109905;-61
2023/01/26 02:20:17;;;;;;;40.80;19.10;;;;;;;-0.79;69.56;102312.39;107364;1254;107663;-61
2023/01/26 02:23:11;;;;;;;38.80;19.90;;;;;;;-0.80;69.65;102309.22;107537;1256;97841;-60
2023/01/26 02:25:53;;;;;;;36.10;20.10;;;;;;;-0.81;69.89;102306.25;107541;1254;97854;-60
2023/01/26 02:28:26;;;;;;;40.40;21.40;;;;;;;-0.87;69.63;102304.42;107556;1254;112205;-59
2023/01/26 02:30:56;;;;;;;38.20;20.10;;;;;;;-0.94;70.03;102302.58;107464;1253;109099;-60
2023/01/26 02:33:31;;;;;;;39.00;20.00;;;;;;;-0.98;69.81;102299.30;107455;1254;108473;-60
2023/01/26 02:36:02;;;;;;;40.30;19.10;;;;;;;-1.01;69.89;102292.48;107398;1254;97835;-60
2023/01/26 02:38:45;;;;;;;40.30;19.30;;;;;;;-1.05;70.12;102292.72;107396;1253;98500;-61
2023/01/26 02:44:06;;;;;;;38.80;19.50;;;;;;;-0.99;70.63;102295.26;107563;1254;109063;-60
2023/01/26 02:46:34;;;;;;;40.60;20.30;;;;;;;-0.96;70.47;102291.86;107354;1259;107559;-60
2023/01/26 02:49:50;;;;;;;33.90;18.20;;;;;;;-0.93;70.42;102289.54;107540;1254;97800;-60
2023/01/26 02:51:52;;;;;;;32.60;17.20;;;;;;;-0.91;70.37;102285.98;107332;1256;98376;-60
2023/01/26 02:57:08;;;;;;;34.20;17.30;;;;;;;-0.96;70.15;102277.79;107454;1257;109806;-58
2023/01/26 02:59:36;;;;;;;36.00;17.40;;;;;;;-0.95;70.30;102277.42;107299;1256;109419;-60
2023/01/26 03:02:05;;;;;;;35.70;17.50;;;;;;;-0.95;70.30;102278.30;107288;1259;97811;-60
2023/01/26 03:04:34;;;;;;;36.60;19.00;;;;;;;-0.98;70.47;102273.75;107437;1254;97829;-59
2023/01/26 03:07:03;;;;;;;38.40;18.70;;;;;;;-1.01;70.38;102268.35;107355;1253;111892;-59
2023/01/26 03:09:31;;;;;;;40.80;19.30;;;;;;;-1.02;70.55;102269.23;107550;1253;110666;-60
2023/01/26 03:12:00;;;;;;;41.90;20.30;;;;;;;-1.01;70.49;102268.02;107517;1253;108066;-60
2023/01/26 03:14:28;;;;;;;38.50;20.20;;;;;;;-1.00;70.82;102262.70;107513;1254;97755;-60
2023/01/26 03:16:57;;;;;;;42.00;19.80;;;;;;;-0.98;71.02;102257.92;107532;1253;97849;-59
2023/01/26 03:27:48;;;;;;;38.90;18.80;;;;;;;-0.90;71.89;102257.09;107387;1254;97867;-59
2023/01/26 03:30:18;;;;;;;38.60;19.70;;;;;;;-0.89;72.01;102257.06;107578;1254;97835;-60
2023/01/26 03:32:47;;;;;;;49.20;22.10;;;;;;;-0.84;72.29;102256.80;107561;1254;111121;-59
2023/01/26 03:35:21;;;;;;;39.60;19.00;;;;;;;-0.76;72.56;102252.97;107584;1253;109729;-59
2023/01/26 03:37:53;;;;;;;40.10;20.70;;;;;;;-0.72;72.38;102251.30;107402;1254;108137;-60
2023/01/26 03:57:31;;;;;;;38.90;18.40;;;;;;;-0.89;72.24;102226.95;107565;1254;97727;-59
2023/01/26 04:00:00;;;;;;;41.10;20.70;;;;;;;-0.88;72.37;102231.69;107468;1251;111351;-59
2023/01/26 04:08:27;;;;;;;41.00;21.70;;;;;;;-1.08;72.02;102228.31;107522;1254;97826;-60
2023/01/26 04:11:00;;;;;;;43.70;19.80;;;;;;;-1.14;71.58;102224.71;107539;1253;98361;-61
2023/01/26 04:22:00;;;;;;;36.20;16.20;;;;;;;-1.42;71.60;102230.61;107575;1254;97822;-60
2023/01/26 04:24:31;;;;;;;36.70;16.80;;;;;;;-1.40;71.99;102232.70;107532;1254;97736;-60
2023/01/26 04:26:59;;;;;;;32.00;17.10;;;;;;;-1.38;72.05;102235.99;107615;1254;111343;-61
2023/01/26 04:29:36;;;;;;;32.60;16.60;;;;;;;-1.35;72.27;102230.67;107552;1254;108953;-59
2023/01/26 04:32:05;;;;;;;30.90;16.10;;;;;;;-1.34;72.10;102229.42;107601;1254;107274;-61
2023/01/26 04:34:34;;;;;;;32.80;15.70;;;;;;;-1.38;72.28;102238.46;107485;1259;97847;-58
2023/01/26 04:37:09;;;;;;;32.90;14.10;;;;;;;-1.43;72.53;102238.19;107579;1254;97809;-61
2023/01/26 04:39:44;;;;;;;31.20;13.20;;;;;;;-1.47;72.68;102242.45;107495;1254;111935;-60
2023/01/26 04:42:13;;;;;;;35.20;14.20;;;;;;;-1.48;72.88;102238.61;107545;1254;109990;-59
2023/01/26 04:44:41;;;;;;;27.70;13.40;;;;;;;-1.52;73.17;102239.20;107514;1254;107931;-59
2023/01/26 04:47:10;;;;;;;32.10;15.30;;;;;;;-1.52;73.17;102231.80;107479;1254;97814;-60
2023/01/26 04:49:39;;;;;;;30.10;14.60;;;;;;;-1.53;72.98;102239.04;107375;1256;97872;-59
2023/01/26 04:52:07;;;;;;;31.90;16.00;;;;;;;-1.53;73.23;102238.68;107432;1255;112077;-59
2023/01/26 04:54:36;;;;;;;39.90;17.50;;;;;;;-1.54;73.51;102238.70;107534;1254;108732;-61
2023/01/26 04:57:05;;;;;;;35.80;17.30;;;;;;;-1.51;73.63;102240.94;107427;1258;108643;-60
2023/01/26 04:59:36;;;;;;;32.40;15.20;;;;;;;-1.46;73.99;102250.73;107526;1253;97792;-60
2023/01/26 05:02:04;;;;;;;30.20;14.40;;;;;;;-1.42;73.91;102251.37;107586;1254;98370;-60
2023/01/26 05:04:33;;;;;;;31.10;14.90;;;;;;;-1.37;74.13;102250.07;107562;1254;111832;-62
2023/01/26 05:07:02;;;;;;;36.40;17.50;;;;;;;-1.32;74.42;102245.95;107287;1253;110245;-60
2023/01/26 05:09:30;;;;;;;47.70;19.80;;;;;;;-1.25;74.65;102244.61;107304;1253;108632;-62
2023/01/26 05:15:19;;;;;;;39.20;15.20;;;;;;;-1.08;75.05;102238.88;107508;1254;98376;-60
2023/01/26 05:18:00;;;;;;;45.90;15.70;;;;;;;-1.05;74.99;102241.29;107464;1254;111474;-61
2023/01/26 05:20:52;;;;;;;35.10;15.40;;;;;;;-0.99;75.04;102241.54;107480;1253;109216;-59
2023/01/26 05:23:26;;;;;;;32.70;15.30;;;;;;;-0.92;75.16;102241.96;107506;1254;108248;-60
2023/01/26 05:26:09;;;;;;;33.10;15.20;;;;;;;-0.88;75.06;102237.85;107458;1256;97923;-61
2023/01/26 05:28:54;;;;;;;27.00;13.70;;;;;;;-0.86;75.07;102238.16;107475;1254;97723;-60
2023/01/26 05:31:23;;;;;;;29.00;15.10;;;;;;;-0.83;74.68;102241.29;107420;1254;112886;-60
2023/01/26 05:33:52;;;;;;;36.00;15.40;;;;;;;-0.80;74.70;102240.54;107462;1254;108966;-60
2023/01/26 05:36:23;;;;;;;34.30;15.90;;;;;;;-0.80;74.70;102243.71;107519;1256;108132;-60
2023/01/26 05:38:52;;;;;;;27.90;13.90;;;;;;;-0.81;74.79;102241.77;107551;1254;97890;-61
2023/01/26 05:41:24;;;;;;;35.40;16.50;;;;;;;-0.82;74.38;102245.84;107590;1254;97825;-59
2023/01/26 05:44:07;;;;;;;40.10;17.00;;;;;;;-0.79;74.55;102248.07;107511;1255;111974;-59
2023/01/26 05:46:50;;;;;;;31.30;16.00;;;;;;;-0.75;74.55;102254.52;107523;1254;110239;-61
2023/01/26 05:49:18;;;;;;;40.20;16.10;;;;;;;-0.76;74.24;102251.20;107564;1254;108959;-60
2023/01/26 05:51:47;;;;;;;34.90;16.00;;;;;;;-0.83;74.20;102256.95;107512;1254;97819;-60
2023/01/26 05:54:15;;;;;;;39.30;16.80;;;;;;;-0.86;74.34;102255.96;107557;1256;97711;-61
2023/01/26 05:56:44;;;;;;;44.40;18.30;;;;;;;-0.90;74.07;102257.09;107502;1259;111837;-58
2023/01/26 05:59:13;;;;;;;38.30;17.80;;;;;;;-0.93;74.20;102255.71;107553;1254;110285;-60
2023/01/26 06:01:45;;;;;;;48.20;21.10;;;;;;;-0.99;74.19;102252.46;107461;1254;107637;-60
2023/01/26 06:04:16;;;;;;;42.70;21.20;;;;;;;-1.00;74.39;102254.60;107302;1257;99265;-59
2023/01/26 06:06:52;;;;;;;45.20;20.80;;;;;;;-1.01;74.24;102250.20;107657;1254;99766;-60
2023/01/26 06:09:28;;;;;;;49.30;21.20;;;;;;;-1.03;74.43;102248.85;107547;1257;114375;-61
2023/01/26 06:12:15;;;;;;;36.20;17.70;;;;;;;-1.07;74.81;102247.85;107461;1254;109643;-61
2023/01/26 06:14:57;;;;;;;44.80;19.70;;;;;;;-1.09;74.75;102247.52;107516;1257;107897;-61
2023/01/26 06:17:38;;;;;;;41.60;18.80;;;;;;;-1.12;74.78;102247.57;107493;1254;99860;-59
2023/01/26 06:20:09;;;;;;;41.80;19.20;;;;;;;-1.15;75.16;102249.02;107523;1255;99818;-60
2023/01/26 06:22:39;;;;;;;42.30;17.30;;;;;;;-1.13;75.52;102245.13;107488;1259;112159;-61
2023/01/26 06:25:08;;;;;;;36.70;16.60;;;;;;;-1.10;75.66;102245.95;107646;1254;109104;-60
2023/01/26 06:27:40;;;;;;;37.30;16.40;;;;;;;-1.09;75.59;102246.12;107451;1254;108553;-59
2023/01/26 06:30:19;;;;;;;39.30;17.20;;;;;;;-1.05;75.62;102242.20;107452;1254;99586;-59
2023/01/26 06:32:48;;;;;;;43.30;17.40;;;;;;;-1.03;75.78;102241.45;107531;1254;98960;-60
2023/01/26 06:35:18;;;;;;;41.10;19.40;;;;;;;-1.01;75.90;102244.93;107507;1254;113214;-60
2023/01/26 06:37:52;;;;;;;47.30;20.30;;;;;;;-0.96;75.88;102246.80;107529;1254;109793;-61
2023/01/26 06:40:20;;;;;;;62.00;24.40;;;;;;;-0.89;75.95;102250.37;107537;1254;108474;-61
2023/01/26 06:42:50;;;;;;;47.90;22.50;;;;;;;-0.79;76.01;102248.44;107518;1254;99273;-61
2023/01/26 06:45:19;;;;;;;52.40;24.90;;;;;;;-0.72;76.07;102237.92;107462;1255;99099;-59
2023/01/26 06:47:50;;;;;;;51.30;22.60;;;;;;;-0.65;76.31;102230.76;107583;1255;113449;-59
2023/01/26 06:50:24;;;;;;;51.90;20.80;;;;;;;-0.56;76.57;102233.77;107429;1254;109871;-61
2023/01/26 06:52:59;;;;;;;48.70;20.50;;;;;;;-0.50;76.82;102233.11;107467;1257;109331;-59
2023/01/26 06:55:50;;;;;;;37.30;18.70;;;;;;;-0.38;76.90;102233.08;107263;1255;99246;-59
2023/01/26 06:58:29;;;;;;;41.00;18.70;;;;;;;-0.27;76.90;102233.58;107614;1254;99175;-64
2023/01/26 07:01:23;;;;;;;39.30;18.90;;;;;;;-0.18;77.30;102226.69;107338;1254;113692;-60
2023/01/26 07:03:53;;;;;;;41.30;18.30;;;;;;;-0.11;77.30;102231.31;107507;1254;109154;-59
2023/01/26 07:06:22;;;;;;;54.20;18.20;;;;;;;-0.07;77.01;102232.29;107488;1256;107402;-59
2023/01/26 07:08:50;;;;;;;36.00;17.30;;;;;;;-0.04;76.95;102230.45;107456;1254;99278;-60
2023/01/26 07:11:19;;;;;;;38.90;18.20;;;;;;;0.07;77.00;102229.19;107515;1257;99740;-60
2023/01/26 07:13:47;;;;;;;39.90;18.40;;;;;;;0.17;76.80;102229.84;107572;1257;114105;-60
2023/01/26 07:16:16;;;;;;;34.90;18.50;;;;;;;0.20;76.54;102227.14;107519;1254;109988;-60
2023/01/26 07:18:46;;;;;;;50.50;21.30;;;;;;;0.19;76.43;102224.86;107468;1254;106285;-59
2023/01/26 07:21:17;;;;;;;47.60;20.50;;;;;;;0.20;76.58;102227.67;107477;1255;99210;-60
2023/01/26 07:23:46;;;;;;;47.90;20.40;;;;;;;0.23;76.47;102228.13;107534;1254;99291;-61
2023/01/26 07:26:15;;;;;;;43.60;21.70;;;;;;;0.26;76.22;102224.02;107543;1254;113277;-59
2023/01/26 07:28:44;;;;;;;44.20;21.50;;;;;;;0.28;76.11;102222.72;107555;1254;109042;-60
2023/01/26 07:31:12;;;;;;;52.70;22.70;;;;;;;0.26;75.90;102225.23;107557;1256;108250;-60
2023/01/26 07:33:41;;;;;;;51.70;22.50;;;;;;;0.28;75.86;102224.30;107516;1254;99179;-60
2023/01/26 07:36:09;;;;;;;58.00;22.40;;;;;;;0.30;75.69;102223.72;107552;1254;99803;-59
2023/01/26 07:38:38;;;;;;;48.30;23.10;;;;;;;0.25;75.44;102226.32;107538;1256;114558;-60
2023/01/26 07:41:10;;;;;;;56.80;23.90;;;;;;;0.22;75.58;102227.45;107500;1254;109420;-59
2023/01/26 07:43:40;;;;;;;47.90;20.80;;;;;;;0.22;75.59;102223.05;107491;1253;108748;-62
2023/01/26 07:46:09;;;;;;;56.50;23.30;;;;;;;0.21;75.75;102222.35;107452;1254;99857;-61
2023/01/26 07:48:39;;;;;;;55.00;22.60;;;;;;;0.21;75.56;102220.94;107434;1254;99832;-62
2023/01/26 07:51:09;;;;;;;51.70;23.60;;;;;;;0.21;75.64;102212.83;107517;1254;113314;-59
2023/01/26 07:53:38;;;;;;;56.50;24.00;;;;;;;0.21;75.64;102213.70;107557;1254;109015;-59
2023/01/26 07:56:12;;;;;;;63.10;25.70;;;;;;;0.20;75.79;102205.25;107537;1254;108425;-60
2023/01/26 07:58:41;;;;;;;57.20;25.30;;;;;;;0.21;76.02;102203.48;107515;1254;99188;-60
2023/01/26 08:01:12;;;;;;;65.20;26.00;;;;;;;0.26;75.98;102204.44;107551;1254;99192;-59
2023/01/26 08:03:41;;;;;;;60.80;24.30;;;;;;;0.31;76.00;102196.01;107502;1254;112768;-59
2023/01/26 08:06:10;;;;;;;60.20;24.50;;;;;;;0.36;75.95;102200.48;107575;1254;109733;-59
2023/01/26 08:08:41;;;;;;;53.70;24.60;;;;;;;0.42;75.94;102204.76;107573;1253;108569;-60
2023/01/26 08:11:10;;;;;;;59.20;26.40;;;;;;;0.49;75.91;102201.41;107544;1254;100578;-60
2023/01/26 08:13:39;;;;;;;57.00;27.70;;;;;;;0.55;75.84;102198.83;107586;1256;99185;-60
2023/01/26 08:16:10;;;;;;;64.00;28.40;;;;;;;0.60;75.67;102196.93;107493;1254;113045;-59
2023/01/26 08:18:44;;;;;;;64.90;30.80;;;;;;;0.63;75.63;102197.92;107496;1254;109724;-60
2023/01/26 08:21:15;;;;;;;58.50;24.30;;;;;;;0.68;75.58;102196.73;107467;1255;107976;-60
2023/01/26 08:23:50;;;;;;;61.40;28.30;;;;;;;0.73;75.64;102193.45;107462;1252;99252;-59
2023/01/26 08:26:19;;;;;;;56.30;25.10;;;;;;;0.84;75.77;102189.84;107529;1254;99189;-60
2023/01/26 08:28:48;;;;;;;51.70;24.00;;;;;;;0.92;75.70;102188.73;107513;1254;113164;-60
2023/01/26 08:31:19;;;;;;;53.00;25.10;;;;;;;0.97;75.54;102192.15;107503;1254;109404;-61
2023/01/26 08:33:49;;;;;;;53.90;23.50;;;;;;;0.99;75.45;102189.98;107449;1254;108481;-60
2023/01/26 08:36:18;;;;;;;43.50;20.50;;;;;;;1.04;75.48;102195.51;107484;1253;99292;-60
2023/01/26 08:38:51;;;;;;;51.30;21.70;;;;;;;1.11;75.35;102194.27;107557;1255;99165;-60
2023/01/26 08:41:19;;;;;;;47.90;21.90;;;;;;;1.16;75.48;102191.13;107502;1257;113677;-60
2023/01/26 08:43:47;;;;;;;52.60;23.60;;;;;;;1.22;75.40;102186.90;107530;1256;110199;-60
2023/01/26 08:46:16;;;;;;;51.10;22.00;;;;;;;1.27;75.33;102188.20;107383;1254;108913;-61
2023/01/26 08:48:45;;;;;;;51.70;22.60;;;;;;;1.30;75.07;102191.11;107505;1254;99054;-60
2023/01/26 08:51:13;;;;;;;54.00;23.70;;;;;;;1.33;75.18;102190.14;107496;1254;99128;-59
2023/01/26 08:53:42;;;;;;;49.00;23.50;;;;;;;1.36;74.89;102189.54;107568;1254;113762;-61
2023/01/26 08:56:11;;;;;;;58.70;24.10;;;;;;;1.34;74.67;102183.42;107553;1257;109162;-60
2023/01/26 08:58:40;;;;;;;57.30;25.40;;;;;;;1.38;74.71;102181.00;107554;1254;108532;-60
2023/01/26 09:01:14;;;;;;;54.00;25.50;;;;;;;1.43;74.59;102178.19;107485;1256;99192;-60
2023/01/26 09:03:43;;;;;;;55.30;24.20;;;;;;;1.47;74.38;102174.58;107571;1253;99816;-58
2023/01/26 09:06:13;;;;;;;59.70;27.00;;;;;;;1.47;74.17;102166.42;107521;1254;112685;-59
2023/01/26 09:08:42;;;;;;;56.30;26.60;;;;;;;1.42;73.92;102164.80;107487;1254;110066;-59
2023/01/26 09:11:11;;;;;;;59.90;26.60;;;;;;;1.39;73.80;102162.23;107465;1254;108466;-65
2023/01/26 09:13:39;;;;;;;59.10;25.40;;;;;;;1.31;73.61;102161.73;107453;1253;99177;-59
2023/01/26 09:16:14;;;;;;;62.60;28.30;;;;;;;1.26;73.68;102157.27;107563;1254;99714;-60
2023/01/26 09:18:42;;;;;;;66.00;27.40;;;;;;;1.21;73.71;102152.45;107537;1256;113542;-59
2023/01/26 09:21:11;;;;;;;68.90;32.10;;;;;;;1.17;73.84;102152.74;107526;1254;109218;-59
2023/01/26 09:23:39;;;;;;;68.70;31.70;;;;;;;1.12;73.94;102146.16;107551;1253;107686;-58
2023/01/26 09:26:08;;;;;;;64.90;30.40;;;;;;;1.09;73.95;102142.02;107533;1252;99202;-60
2023/01/26 09:28:36;;;;;;;59.10;28.50;;;;;;;1.03;74.41;102141.98;107650;1253;99713;-59
2023/01/26 09:31:09;;;;;;;70.40;30.90;;;;;;;1.01;74.53;102138.86;107678;1255;112581;-59
2023/01/26 09:33:37;;;;;;;58.60;28.90;;;;;;;0.97;74.72;102137.21;107662;1253;109268;-59
2023/01/26 09:36:09;;;;;;;60.00;29.20;;;;;;;0.90;74.97;102136.85;107628;1254;107637;-59
2023/01/26 09:38:38;;;;;;;59.20;28.80;;;;;;;0.87;75.34;102136.75;107616;1254;99195;-60
2023/01/26 09:41:10;;;;;;;61.40;27.90;;;;;;;0.88;75.46;102133.73;107640;1254;99082;-59
2023/01/26 09:43:44;;;;;;;63.30;28.40;;;;;;;0.92;75.84;102134.67;107651;1254;112759;-61
2023/01/26 09:46:39;;;;;;;59.80;27.30;;;;;;;0.92;75.93;102124.80;107636;1254;109065;-61
2023/01/26 09:49:14;;;;;;;66.60;26.90;;;;;;;0.97;75.93;102121.65;107600;1254;107984;-59
2023/01/26 09:51:51;;;;;;;56.20;26.00;;;;;;;1.02;75.92;102121.02;107642;1254;99208;-60
2023/01/26 09:54:50;;;;;;;54.10;25.90;;;;;;;1.08;76.41;102114.64;107614;1254;99180;-59
2023/01/26 09:57:27;;;;;;;54.20;25.80;;;;;;;1.20;76.12;102106.91;107602;1254;112220;-60
2023/01/26 10:00:20;;;;;;;51.00;24.50;;;;;;;1.30;76.03;102106.63;107646;1254;109126;-60
2023/01/26 10:03:07;;;;;;;51.00;23.40;;;;;;;1.35;75.74;102102.42;107640;1253;106091;-60
2023/01/26 10:06:04;;;;;;;46.70;23.30;;;;;;;1.40;75.46;102105.45;107574;1253;99314;-60
2023/01/26 10:08:55;;;;;;;49.90;22.30;;;;;;;1.50;75.38;102094.03;107631;1254;99208;-59
2023/01/26 10:11:39;;;;;;;48.20;24.30;;;;;;;1.60;75.35;102089.67;107667;1254;112313;-59
2023/01/26 10:14:34;;;;;;;56.00;23.20;;;;;;;1.71;74.86;102078.39;107573;1254;110135;-60
2023/01/26 10:17:05;;;;;;;48.90;23.00;;;;;;;1.74;74.13;102072.80;107514;1254;109710;-60
2023/01/26 10:19:42;;;;;;;60.20;24.40;;;;;;;1.81;74.11;102079.15;107564;1254;99287;-59
2023/01/26 10:22:42;;;;;;;53.00;23.30;;;;;;;1.88;73.71;102075.38;107554;1252;99756;-59
2023/01/26 10:25:35;;;;;;;57.40;26.30;;;;;;;1.96;73.07;102072.83;107570;1254;112706;-60
2023/01/26 10:28:17;;;;;;;37.90;17.60;;;;;;;2.05;72.95;102069.89;107482;1254;110770;-61
2023/01/26 10:30:47;;;;;;;25.50;13.70;;;;;;;2.12;69.60;102066.68;107534;1254;108257;-61
2023/01/26 10:33:19;;;;;;;31.30;13.90;;;;;;;2.15;68.61;102061.26;107616;1254;99201;-62
2023/01/26 10:35:47;;;;;;;31.50;14.70;;;;;;;2.20;67.98;102060.22;107555;1253;99067;-60
2023/01/26 10:38:26;;;;;;;29.00;15.00;;;;;;;2.25;67.12;102049.97;107571;1253;112923;-61
2023/01/26 10:40:55;;;;;;;36.40;16.00;;;;;;;2.29;66.93;102042.59;107700;1256;110146;-59
2023/01/26 10:43:23;;;;;;;29.70;14.40;;;;;;;2.32;66.93;102035.57;107039;1253;792256;-59
2023/01/26 10:45:52;;;;;;;36.20;15.40;;;;;;;2.37;67.13;102035.57;107564;1254;99170;-59
2023/01/26 10:48:25;;;;;;;29.20;15.30;;;;;;;2.45;65.64;102037.77;107596;1254;99720;-59
2023/01/26 10:51:12;;;;;;;35.20;14.90;;;;;;;2.49;64.91;102031.83;107591;1254;113573;-60
2023/01/26 10:53:40;;;;;;;29.50;13.70;;;;;;;2.51;64.97;102025.37;107611;1253;109969;-61
2023/01/26 10:56:15;;;;;;;39.70;15.70;;;;;;;2.52;64.81;102019.84;107536;1252;108213;-59
2023/01/26 10:58:56;;;;;;;38.70;15.90;;;;;;;2.53;64.16;102021.07;107562;1253;99182;-60
2023/01/26 11:01:26;;;;;;;35.10;15.50;;;;;;;2.53;64.36;102008.45;107579;1256;99746;-61
2023/01/26 11:04:05;;;;;;;35.10;16.30;;;;;;;2.56;64.87;102006.41;107547;1253;112615;-59
2023/01/26 11:06:34;;;;;;;38.60;17.40;;;;;;;2.58;65.35;102000.35;107608;1252;108162;-61
2023/01/26 11:09:30;;;;;;;37.60;18.30;;;;;;;2.60;64.74;101997.06;107533;1254;108148;-59
2023/01/26 11:12:01;;;;;;;42.60;17.60;;;;;;;2.57;65.16;101992.73;107572;1254;99185;-60
2023/01/26 11:14:31;;;;;;;38.70;18.70;;;;;;;2.58;65.36;101988.11;107464;1253;99195;-58
2023/01/26 11:16:59;;;;;;;42.90;20.10;;;;;;;2.59;65.55;101989.67;107481;1254;113727;-60
2023/01/26 11:19:41;;;;;;;38.70;18.30;;;;;;;2.58;65.37;101986.52;107554;1254;109676;-60
2023/01/26 11:22:26;;;;;;;37.80;17.80;;;;;;;2.57;65.39;101984.41;107527;1253;108559;-59
2023/01/26 11:25:01;;;;;;;46.80;19.30;;;;;;;2.55;65.67;101977.41;107548;1253;99176;-58
2023/01/26 11:27:44;;;;;;;;;;;;;;;2.57;65.86;101968.48;107623;1253;99062;-61
2023/01/26 11:30:36;;;;;;;32.80;17.30;;;;;;;2.58;65.67;101969.16;107662;1253;113269;-60
2023/01/26 11:33:16;;;;;;;35.50;16.50;;;;;;;2.54;65.59;101963.27;107665;1253;110200;-59
2023/01/26 11:36:17;;;;;;;33.10;17.40;;;;;;;2.50;65.21;101955.79;107573;1253;109596;-60
2023/01/26 11:38:58;;;;;;;38.50;19.20;;;;;;;2.47;65.38;101954.50;107606;1254;99150;-59
2023/01/26 11:41:32;;;;;;;36.80;17.20;;;;;;;2.46;65.13;101955.95;107646;1253;99171;-61
2023/01/26 11:44:16;;;;;;;38.10;16.80;;;;;;;2.44;65.10;101957.60;107681;1255;113729;-60
2023/01/26 11:47:13;;;;;;;44.60;18.70;;;;;;;2.40;64.52;101956.86;107625;1253;109759;-60
2023/01/26 11:50:00;;;;;;;36.90;18.60;;;;;;;2.36;64.83;101955.58;107565;1256;107758;-60
2023/01/26 11:52:33;;;;;;;38.60;17.20;;;;;;;2.33;65.18;101957.83;107432;1254;99075;-60
2023/01/26 11:55:46;;;;;;;47.10;20.40;;;;;;;2.31;64.96;101950.44;107444;1253;99191;-60
2023/01/26 11:58:17;;;;;;;46.30;21.40;;;;;;;2.27;65.08;101947.92;107032;1262;112842;-60
2023/01/26 12:00:56;;;;;;;47.10;22.20;;;;;;;2.23;65.43;101949.30;107420;1257;109742;-59
2023/01/26 12:03:32;;;;;;;49.50;23.00;;;;;;;2.18;65.76;101945.06;107516;1252;108854;-58
2023/01/26 12:06:05;;;;;;;53.60;23.60;;;;;;;2.12;66.19;101946.48;107547;1253;99635;-59
2023/01/26 12:08:40;;;;;;;55.40;24.20;;;;;;;2.07;66.78;101946.87;107585;1254;99043;-59
2023/01/26 12:11:22;;;;;;;54.10;24.80;;;;;;;2.02;67.16;101940.99;107633;1254;113194;-59
2023/01/26 12:14:03;;;;;;;59.00;24.60;;;;;;;1.93;67.30;101947.48;107476;1253;108798;-59
2023/01/26 12:16:46;;;;;;;53.50;26.00;;;;;;;1.86;67.66;101944.17;107453;1253;107685;-59
2023/01/26 12:19:27;;;;;;;49.30;23.80;;;;;;;1.80;67.68;101943.15;107448;1253;99202;-60
2023/01/26 12:22:04;;;;;;;53.80;23.20;;;;;;;1.75;67.76;101943.86;107468;1253;99740;-59
2023/01/26 12:24:40;;;;;;;49.00;22.40;;;;;;;1.73;67.85;101943.38;107443;1253;113251;-60